Time;durP1;ratioP1;P1;durP2;ratioP2;P2;SDS_P1;SDS_P2;PMS_P1;PMS_P2;Temp;Humidity;BMP_temperature;BMP_pressure;BME280_temperature;BME280_humidity;BME280_pressure;Samples;Min_cycle;Max_cycle;Signal;HPM_P1;HPM_P2
2023/01/03 00:01:58;;;;;;;3.97;1.87;;;;;;;;;;4974111;28;20150;-73
2023/01/03 00:04:23;;;;;;;5.73;1.80;;;;;;;;;;4974592;28;20117;-73
2023/01/03 00:06:50;;;;;;;4.80;1.70;;;;;;;;;;4958231;28;20039;-73
2023/01/03 00:09:17;;;;;;;3.87;1.63;;;;;;;;;;4974588;28;20055;-74
2023/01/03 00:14:30;;;;;;;2.13;1.40;;;;;;;;;;4958140;28;20112;-73
2023/01/03 00:16:57;;;;;;;2.47;1.40;;;;;;;;;;4974181;28;20039;-72
2023/01/03 00:19:23;;;;;;;5.23;1.70;;;;;;;;;;4958173;28;20050;-73
2023/01/03 00:21:49;;;;;;;4.13;2.20;;;;;;;;;;4958199;28;20073;-74
2023/01/03 00:24:15;;;;;;;4.83;1.80;;;;;;;;;;4957990;28;20582;-73
2023/01/03 00:26:41;;;;;;;2.23;1.73;;;;;;;;;;4957970;28;20479;-72
2023/01/03 00:29:07;;;;;;;5.87;1.90;;;;;;;;;;4942512;28;20153;-73
2023/01/03 00:31:32;;;;;;;4.93;2.10;;;;;;;;;;4957903;28;20058;-73
2023/01/03 00:33:58;;;;;;;6.27;2.13;;;;;;;;;;4958171;28;20054;-73
2023/01/03 00:36:24;;;;;;;4.17;1.97;;;;;;;;;;4941955;28;20043;-73
2023/01/03 00:38:49;;;;;;;3.63;2.20;;;;;;;;;;4957865;28;20043;-73
2023/01/03 00:41:17;;;;;;;4.00;1.80;;;;;;;;;;4974306;28;20354;-73
2023/01/03 00:43:44;;;;;;;3.73;1.90;;;;;;;;;;4958071;28;20058;-74
2023/01/03 00:46:11;;;;;;;4.27;2.10;;;;;;;;;;4974409;28;20096;-73
2023/01/03 00:48:37;;;;;;;4.30;2.20;;;;;;;;;;4973211;28;20053;-72
2023/01/03 00:51:10;;;;;;;4.73;2.00;;;;;;;;;;4971394;28;20059;-75
2023/01/03 00:53:36;;;;;;;8.17;2.13;;;;;;;;;;4955477;28;20042;-72
2023/01/03 00:56:07;;;;;;;6.10;1.90;;;;;;;;;;4954943;28;20118;-73
2023/01/03 00:58:33;;;;;;;3.40;1.50;;;;;;;;;;4955056;28;20038;-72
2023/01/03 01:01:10;;;;;;;3.30;1.50;;;;;;;;;;4955192;28;20470;-72
2023/01/03 01:03:39;;;;;;;2.50;1.53;;;;;;;;;;4972128;28;20585;-72
2023/01/03 01:06:22;;;;;;;2.17;1.70;;;;;;;;;;4971927;28;20038;-73
2023/01/03 01:08:48;;;;;;;3.67;1.77;;;;;;;;;;4973414;28;20086;-72
2023/01/03 01:11:15;;;;;;;4.10;1.80;;;;;;;;;;4957513;28;20050;-71
2023/01/03 01:13:41;;;;;;;5.70;2.03;;;;;;;;;;4974121;28;20042;-72
2023/01/03 01:16:09;;;;;;;3.13;1.90;;;;;;;;;;4958026;28;20382;-72
2023/01/03 01:18:35;;;;;;;2.83;1.80;;;;;;;;;;4973438;28;20049;-73
2023/01/03 01:21:09;;;;;;;4.93;1.83;;;;;;;;;;4941535;28;20047;-74
2023/01/03 01:23:35;;;;;;;3.13;1.57;;;;;;;;;;4972684;28;20485;-71
2023/01/03 01:26:02;;;;;;;3.97;1.70;;;;;;;;;;4973747;28;20070;-74
2023/01/03 01:28:28;;;;;;;7.03;1.90;;;;;;;;;;4956922;28;20093;-74
2023/01/03 01:30:53;;;;;;;5.57;1.90;;;;;;;;;;4956616;28;20043;-72
2023/01/03 01:33:19;;;;;;;2.40;1.30;;;;;;;;;;4940646;28;20034;-72
2023/01/03 01:35:44;;;;;;;3.90;1.70;;;;;;;;;;4956724;28;20034;-71
2023/01/03 01:38:10;;;;;;;3.90;2.00;;;;;;;;;;4956724;28;20388;-74
2023/01/03 01:40:35;;;;;;;3.13;1.70;;;;;;;;;;4940670;28;20453;-73
2023/01/03 01:45:54;;;;;;;4.70;2.00;;;;;;;;;;4956342;28;20034;-73
2023/01/03 01:48:20;;;;;;;5.93;2.10;;;;;;;;;;4956286;28;20027;-73
2023/01/03 01:50:48;;;;;;;4.90;2.10;;;;;;;;;;4971942;28;20050;-72
2023/01/03 01:53:14;;;;;;;8.03;2.30;;;;;;;;;;4972373;28;20053;-70
2023/01/03 01:55:46;;;;;;;3.87;1.73;;;;;;;;;;4972562;28;20034;-72
2023/01/03 01:58:13;;;;;;;5.17;2.73;;;;;;;;;;4940377;28;20070;-72
2023/01/03 02:00:39;;;;;;;4.63;2.40;;;;;;;;;;4955814;28;20039;-73
2023/01/03 02:03:05;;;;;;;7.80;2.50;;;;;;;;;;4955781;28;20089;-72
2023/01/03 02:05:31;;;;;;;2.80;1.93;;;;;;;;;;4955839;28;20045;-73
2023/01/03 02:07:57;;;;;;;5.47;1.83;;;;;;;;;;4955579;28;20042;-73
2023/01/03 02:10:43;;;;;;;3.13;1.73;;;;;;;;;;4972552;28;20050;-73
2023/01/03 02:13:44;;;;;;;4.73;2.03;;;;;;;;;;4945898;28;20505;-73
2023/01/03 02:16:11;;;;;;;4.70;2.03;;;;;;;;;;4935896;29;20047;-73
2023/01/03 02:19:16;;;;;;;5.63;2.67;;;;;;;;;;4948320;28;20051;-74
2023/01/03 02:22:00;;;;;;;9.23;3.30;;;;;;;;;;4936339;29;20039;-73
2023/01/03 02:24:37;;;;;;;10.07;3.20;;;;;;;;;;4920083;29;20058;-73
2023/01/03 02:27:09;;;;;;;11.57;3.13;;;;;;;;;;4949089;28;20066;-73
2023/01/03 02:29:53;;;;;;;5.93;2.60;;;;;;;;;;4971958;28;20051;-74
2023/01/03 02:32:24;;;;;;;7.33;2.73;;;;;;;;;;4956098;28;20038;-73
2023/01/03 02:34:53;;;;;;;10.10;3.13;;;;;;;;;;4973266;28;20477;-73
2023/01/03 02:37:26;;;;;;;6.20;2.20;;;;;;;;;;4972122;28;20035;-72
2023/01/03 02:40:12;;;;;;;4.03;2.00;;;;;;;;;;4972314;28;20098;-73
2023/01/03 02:42:57;;;;;;;7.53;2.70;;;;;;;;;;4955853;28;20453;-73
2023/01/03 02:45:22;;;;;;;6.90;2.80;;;;;;;;;;4955766;28;20039;-73
2023/01/03 02:47:51;;;;;;;6.20;2.30;;;;;;;;;;4972054;28;20061;-72
2023/01/03 02:50:19;;;;;;;7.07;1.80;;;;;;;;;;4972050;28;20050;-71
2023/01/03 02:52:45;;;;;;;1.93;1.60;;;;;;;;;;4971994;28;20496;-73
2023/01/03 02:55:16;;;;;;;3.57;2.20;;;;;;;;;;4955817;28;20035;-73
2023/01/03 02:57:48;;;;;;;3.60;1.80;;;;;;;;;;4956512;28;20480;-72
2023/01/03 03:00:15;;;;;;;4.63;2.07;;;;;;;;;;4957838;28;20042;-73
2023/01/03 03:02:44;;;;;;;4.47;1.57;;;;;;;;;;4957451;28;20043;-73
2023/01/03 03:05:14;;;;;;;5.00;2.13;;;;;;;;;;4974535;28;20462;-72
2023/01/03 03:07:39;;;;;;;2.53;1.90;;;;;;;;;;4973366;28;20039;-73
2023/01/03 03:15:43;;;;;;;2.20;1.47;;;;;;;;;;4955838;28;20109;-73
2023/01/03 03:18:15;;;;;;;3.77;1.60;;;;;;;;;;4955499;28;20540;-74
2023/01/03 03:26:15;;;;;;;2.30;1.53;;;;;;;;;;4975344;28;20034;-73
2023/01/03 03:28:43;;;;;;;3.33;1.90;;;;;;;;;;4959129;28;20039;-73
2023/01/03 03:31:15;;;;;;;4.73;1.70;;;;;;;;;;4958957;28;20034;-73
2023/01/03 03:33:45;;;;;;;5.23;1.70;;;;;;;;;;4959182;28;20138;-72
2023/01/03 03:36:22;;;;;;;6.00;2.33;;;;;;;;;;4958861;28;20062;-74
2023/01/03 03:38:48;;;;;;;6.03;1.83;;;;;;;;;;4975190;28;20496;-74
2023/01/03 03:47:01;;;;;;;3.20;1.93;;;;;;;;;;4958633;28;20154;-74
2023/01/03 03:49:37;;;;;;;6.30;2.10;;;;;;;;;;4975679;28;20055;-74
2023/01/03 03:52:05;;;;;;;5.87;2.00;;;;;;;;;;4958416;28;20059;-73
2023/01/03 03:54:33;;;;;;;3.73;1.70;;;;;;;;;;4958528;28;20545;-74
2023/01/03 03:57:03;;;;;;;3.23;1.67;;;;;;;;;;4958482;28;20405;-73
2023/01/03 03:59:30;;;;;;;4.80;1.87;;;;;;;;;;4958463;28;20039;-73
2023/01/03 04:01:57;;;;;;;3.80;1.63;;;;;;;;;;4974314;28;20093;-73
2023/01/03 04:04:26;;;;;;;5.30;1.87;;;;;;;;;;4975371;28;20081;-72
2023/01/03 04:06:51;;;;;;;4.20;1.67;;;;;;;;;;4974570;28;20038;-73
2023/01/03 04:09:18;;;;;;;2.43;1.63;;;;;;;;;;4974525;28;20058;-74
2023/01/03 04:11:46;;;;;;;5.43;2.50;;;;;;;;;;4974571;28;20057;-74
2023/01/03 04:14:12;;;;;;;5.40;1.90;;;;;;;;;;4958161;28;20038;-73
2023/01/03 04:16:39;;;;;;;4.77;2.17;;;;;;;;;;4974018;28;20463;-73
2023/01/03 04:19:05;;;;;;;4.83;2.53;;;;;;;;;;4958233;28;20149;-74
2023/01/03 04:21:31;;;;;;;10.10;3.10;;;;;;;;;;4974312;28;20481;-73
2023/01/03 04:23:56;;;;;;;7.40;3.27;;;;;;;;;;4974418;28;20054;-73
2023/01/03 04:26:22;;;;;;;10.97;2.93;;;;;;;;;;4975833;28;20085;-72
2023/01/03 04:28:48;;;;;;;7.07;3.00;;;;;;;;;;4975472;28;20402;-73
2023/01/03 04:31:13;;;;;;;7.17;2.70;;;;;;;;;;4941005;28;20388;-74
2023/01/03 04:33:39;;;;;;;4.13;2.10;;;;;;;;;;4957677;28;20042;-73
2023/01/03 04:36:04;;;;;;;4.00;1.90;;;;;;;;;;4974909;28;20038;-73
2023/01/03 04:38:30;;;;;;;5.27;1.93;;;;;;;;;;4957722;28;20069;-73
2023/01/03 04:41:02;;;;;;;5.00;2.43;;;;;;;;;;4974356;28;20065;-74
2023/01/03 04:46:12;;;;;;;3.43;2.00;;;;;;;;;;4975366;28;20031;-75
2023/01/03 04:48:37;;;;;;;10.27;2.17;;;;;;;;;;4975877;28;20046;-74
2023/01/03 04:51:03;;;;;;;5.27;1.87;;;;;;;;;;4959214;28;20070;-75
2023/01/03 04:53:28;;;;;;;5.80;1.90;;;;;;;;;;4958958;28;20390;-76
2023/01/03 04:55:57;;;;;;;3.00;2.00;;;;;;;;;;4975901;28;20130;-73
2023/01/03 04:58:23;;;;;;;3.10;1.90;;;;;;;;;;4975204;28;20069;-75
2023/01/03 05:00:49;;;;;;;5.33;2.10;;;;;;;;;;4974733;28;20050;-75
2023/01/03 05:03:14;;;;;;;3.30;2.03;;;;;;;;;;4958172;28;20042;-74
2023/01/03 05:05:40;;;;;;;4.67;2.10;;;;;;;;;;4974247;28;20038;-75
2023/01/03 05:08:06;;;;;;;5.33;2.30;;;;;;;;;;4974993;28;20061;-77
2023/01/03 05:10:32;;;;;;;3.43;2.47;;;;;;;;;;4958674;28;20528;-75
2023/01/03 05:13:00;;;;;;;6.63;2.30;;;;;;;;;;4959721;28;20070;-74
2023/01/03 05:15:27;;;;;;;3.10;1.90;;;;;;;;;;4975767;28;20042;-73
2023/01/03 05:17:52;;;;;;;6.40;2.50;;;;;;;;;;4958208;28;20137;-72
2023/01/03 05:25:50;;;;;;;5.73;2.20;;;;;;;;;;4957634;28;20042;-74
2023/01/03 05:28:16;;;;;;;4.67;2.27;;;;;;;;;;4968353;28;20038;-75
2023/01/03 05:30:43;;;;;;;4.30;2.43;;;;;;;;;;4959462;28;20127;-81
2023/01/03 05:33:09;;;;;;;5.03;2.40;;;;;;;;;;4959244;28;20042;-79
2023/01/03 05:35:35;;;;;;;3.20;2.13;;;;;;;;;;4942326;29;20047;-78
2023/01/03 05:38:00;;;;;;;2.60;2.20;;;;;;;;;;4920136;29;20046;-77
2023/01/03 05:40:26;;;;;;;4.23;2.40;;;;;;;;;;4921707;29;20466;-78
2023/01/03 05:42:52;;;;;;;3.70;1.80;;;;;;;;;;4956201;28;20043;-80
2023/01/03 05:45:24;;;;;;;5.60;2.30;;;;;;;;;;4926251;29;20134;-78
2023/01/03 05:47:50;;;;;;;4.20;2.20;;;;;;;;;;4922688;29;20086;-78
2023/01/03 05:50:16;;;;;;;5.07;2.63;;;;;;;;;;4963565;28;20079;-76
2023/01/03 05:52:42;;;;;;;6.47;2.70;;;;;;;;;;4957437;29;20047;-78
2023/01/03 05:55:08;;;;;;;6.23;2.60;;;;;;;;;;4972451;29;20047;-78
2023/01/03 05:57:34;;;;;;;8.47;2.97;;;;;;;;;;4939102;29;20070;-79
2023/01/03 06:00:01;;;;;;;5.17;2.67;;;;;;;;;;4955321;28;20042;-77
2023/01/03 06:02:34;;;;;;;4.45;2.90;;;;;;;;;;4972746;29;20055;-80
2023/01/03 06:05:01;;;;;;;6.90;2.63;;;;;;;;;;4971897;28;20099;-83
2023/01/03 06:07:28;;;;;;;5.50;2.73;;;;;;;;;;4972507;29;20058;-75
2023/01/03 06:09:53;;;;;;;4.53;2.47;;;;;;;;;;4970747;29;20047;-74
2023/01/03 06:12:19;;;;;;;3.90;2.50;;;;;;;;;;4980920;28;20077;-74
2023/01/03 06:14:44;;;;;;;5.40;2.50;;;;;;;;;;4972106;28;20023;-74
2023/01/03 06:19:55;;;;;;;3.90;2.03;;;;;;;;;;4967623;29;20039;-74
2023/01/03 06:22:22;;;;;;;5.87;2.33;;;;;;;;;;4947603;29;20046;-73
2023/01/03 06:24:50;;;;;;;6.90;2.33;;;;;;;;;;4969351;28;20046;-75
2023/01/03 06:27:16;;;;;;;4.40;2.40;;;;;;;;;;4938053;29;20035;-76
2023/01/03 06:29:41;;;;;;;4.70;2.50;;;;;;;;;;4944827;29;20058;-73
2023/01/03 06:32:07;;;;;;;9.07;2.47;;;;;;;;;;4950384;29;20043;-75
2023/01/03 06:34:33;;;;;;;6.60;2.60;;;;;;;;;;4968709;28;20053;-78
2023/01/03 06:36:59;;;;;;;5.10;2.40;;;;;;;;;;4951948;29;20039;-76
2023/01/03 06:39:25;;;;;;;5.13;2.77;;;;;;;;;;4930943;29;20098;-76
2023/01/03 06:41:50;;;;;;;8.07;3.50;;;;;;;;;;4923005;29;20142;-78
2023/01/03 06:44:16;;;;;;;5.27;2.70;;;;;;;;;;4936157;29;20106;-78
2023/01/03 06:54:56;;;;;;;16.87;5.27;;;;;;;;;;4968431;28;20110;-74
2023/01/03 06:57:22;;;;;;;10.90;4.30;;;;;;;;;;4954605;28;20043;-79
2023/01/03 06:59:47;;;;;;;12.87;4.30;;;;;;;;;;4923433;29;20133;-78
2023/01/03 07:02:14;;;;;;;10.40;4.10;;;;;;;;;;4939960;29;20042;-77
2023/01/03 07:04:40;;;;;;;10.13;4.20;;;;;;;;;;4947515;29;20382;-79
2023/01/03 07:07:05;;;;;;;11.17;4.23;;;;;;;;;;4954894;29;20039;-79
2023/01/03 07:09:31;;;;;;;8.30;4.13;;;;;;;;;;4956829;29;20402;-81
2023/01/03 07:13:57;;;;;;;10.57;4.60;;;;;;;;;;4956265;28;20104;-81
2023/01/03 07:14:43;;;;;;;15.17;5.43;;;;;;;;;;4957174;29;20046;-78
2023/01/03 07:17:09;;;;;;;11.20;4.70;;;;;;;;;;4942003;29;20393;-80
2023/01/03 07:19:36;;;;;;;11.67;4.83;;;;;;;;;;4923990;29;20051;-78
2023/01/03 07:22:02;;;;;;;12.63;4.80;;;;;;;;;;4955256;29;20039;-79
2023/01/03 07:24:28;;;;;;;8.93;4.33;;;;;;;;;;4908259;29;20046;-78
2023/01/03 07:26:54;;;;;;;10.63;5.07;;;;;;;;;;4939305;29;20134;-72
2023/01/03 07:29:19;;;;;;;44.63;6.20;;;;;;;;;;4938463;29;20109;-75
2023/01/03 07:31:45;;;;;;;7.33;4.33;;;;;;;;;;4953185;28;20066;-73
2023/01/03 07:34:10;;;;;;;11.27;4.87;;;;;;;;;;4956694;28;20038;-73
2023/01/03 07:36:36;;;;;;;11.97;5.23;;;;;;;;;;4980870;28;20038;-77
2023/01/03 07:39:02;;;;;;;11.90;5.53;;;;;;;;;;4968414;28;20023;-76
2023/01/03 07:43:35;;;;;;;8.50;5.10;;;;;;;;;;4984098;28;20103;-74
2023/01/03 07:44:13;;;;;;;13.93;5.63;;;;;;;;;;4983523;28;20552;-71
2023/01/03 07:46:39;;;;;;;11.60;5.30;;;;;;;;;;4966597;28;20089;-74
2023/01/03 07:49:05;;;;;;;13.57;5.93;;;;;;;;;;4983941;28;20488;-74
2023/01/03 07:51:31;;;;;;;11.73;5.87;;;;;;;;;;4951745;28;20062;-75
2023/01/03 07:53:57;;;;;;;12.40;6.13;;;;;;;;;;4968502;28;20129;-76
2023/01/03 07:56:24;;;;;;;13.50;5.77;;;;;;;;;;4966418;28;20878;-75
2023/01/03 07:58:53;;;;;;;10.17;5.07;;;;;;;;;;4966824;28;20030;-73
2023/01/03 08:01:21;;;;;;;11.97;5.40;;;;;;;;;;4952395;28;20041;-74
2023/01/03 08:03:48;;;;;;;12.73;5.13;;;;;;;;;;4983005;28;20077;-74
2023/01/03 08:06:23;;;;;;;13.67;6.20;;;;;;;;;;4966876;28;20163;-75
2023/01/03 08:14:19;;;;;;;15.03;7.10;;;;;;;;;;4982309;28;20149;-76
2023/01/03 08:16:45;;;;;;;9.60;5.67;;;;;;;;;;4982542;28;20852;-75
2023/01/03 08:19:10;;;;;;;15.87;7.10;;;;;;;;;;4946972;28;20118;-72
2023/01/03 08:21:36;;;;;;;15.07;6.03;;;;;;;;;;4967259;28;20492;-76
2023/01/03 08:24:02;;;;;;;15.60;6.97;;;;;;;;;;4967133;28;20125;-75
2023/01/03 08:26:29;;;;;;;14.07;7.27;;;;;;;;;;4983419;28;20101;-75
2023/01/03 08:28:56;;;;;;;12.53;6.67;;;;;;;;;;4981769;28;20082;-76
2023/01/03 08:31:22;;;;;;;16.70;8.23;;;;;;;;;;4966173;28;20066;-75
2023/01/03 08:33:51;;;;;;;17.00;8.07;;;;;;;;;;4982686;28;20563;-74
2023/01/03 08:36:17;;;;;;;18.23;7.47;;;;;;;;;;4983401;28;20480;-74
2023/01/03 08:38:50;;;;;;;19.30;8.27;;;;;;;;;;4966679;28;20532;-74
2023/01/03 08:41:19;;;;;;;14.40;7.00;;;;;;;;;;4951621;28;20045;-75
2023/01/03 08:43:46;;;;;;;18.20;7.60;;;;;;;;;;4966029;28;20035;-74
2023/01/03 08:46:12;;;;;;;20.13;8.43;;;;;;;;;;4966073;28;20030;-73
2023/01/03 08:48:38;;;;;;;15.67;7.20;;;;;;;;;;4983457;28;20053;-73
2023/01/03 08:51:04;;;;;;;18.90;7.57;;;;;;;;;;4965855;28;20058;-75
2023/01/03 08:53:30;;;;;;;20.90;8.63;;;;;;;;;;4969366;28;20509;-74
2023/01/03 08:55:56;;;;;;;21.47;8.83;;;;;;;;;;4965193;28;20062;-74
2023/01/03 08:58:21;;;;;;;19.00;8.00;;;;;;;;;;4948237;28;20030;-74
2023/01/03 09:00:47;;;;;;;20.10;8.23;;;;;;;;;;4949807;28;20358;-75
2023/01/03 09:03:15;;;;;;;17.50;8.27;;;;;;;;;;4981537;28;20113;-75
2023/01/03 09:05:41;;;;;;;28.63;8.33;;;;;;;;;;4952869;28;20513;-75
2023/01/03 09:08:07;;;;;;;19.67;8.90;;;;;;;;;;4950052;28;20043;-74
2023/01/03 09:10:34;;;;;;;22.77;8.43;;;;;;;;;;4982808;28;20050;-75
2023/01/03 09:13:00;;;;;;;16.93;7.37;;;;;;;;;;4951946;28;20088;-74
2023/01/03 09:15:26;;;;;;;25.63;9.17;;;;;;;;;;4964591;28;20030;-77
2023/01/03 09:17:52;;;;;;;24.57;9.03;;;;;;;;;;4947888;28;20038;-76
2023/01/03 09:20:17;;;;;;;25.17;8.83;;;;;;;;;;4950848;28;20045;-75
2023/01/03 09:22:46;;;;;;;28.93;9.40;;;;;;;;;;4965483;28;20045;-75
2023/01/03 09:25:15;;;;;;;23.65;8.82;;;;;;;;;;4981314;28;20038;-74
2023/01/03 09:27:47;;;;;;;28.37;9.57;;;;;;;;;;4948968;28;20046;-75
2023/01/03 09:30:14;;;;;;;28.50;9.87;;;;;;;;;;4950795;28;20129;-75
2023/01/03 09:32:40;;;;;;;30.70;10.03;;;;;;;;;;4965283;28;20026;-76
2023/01/03 09:35:06;;;;;;;34.33;10.50;;;;;;;;;;4950364;28;20126;-75
2023/01/03 09:37:34;;;;;;;27.07;8.20;;;;;;;;;;4966416;28;20133;-77
2023/01/03 09:40:03;;;;;;;28.07;8.60;;;;;;;;;;4965027;28;20050;-77
2023/01/03 09:45:18;;;;;;;23.23;8.03;;;;;;;;;;4981327;28;20042;-71
2023/01/03 09:47:45;;;;;;;27.43;8.30;;;;;;;;;;4965729;28;20049;-71
2023/01/03 09:50:18;;;;;;;29.17;8.93;;;;;;;;;;4978809;28;20038;-71
2023/01/03 10:04:04;;;;;;;23.65;7.05;;;;;;;;;;4974950;28;20088;-70
2023/01/03 10:06:33;;;;;;;25.10;7.53;;;;;;;;;;4959286;28;20042;-69
2023/01/03 10:09:08;;;;;;;25.53;8.47;;;;;;;;;;4959175;28;20038;-69
2023/01/03 10:11:40;;;;;;;39.10;11.80;;;;;;;;;;4975586;28;20481;-69
2023/01/03 10:14:09;;;;;;;34.43;10.23;;;;;;;;;;4975382;28;20041;-71
2023/01/03 10:16:42;;;;;;;32.27;9.93;;;;;;;;;;4992258;28;20370;-71
2023/01/03 10:19:07;;;;;;;26.43;9.03;;;;;;;;;;4959240;28;20038;-70
2023/01/03 10:21:43;;;;;;;28.40;8.70;;;;;;;;;;4975547;28;20137;-69
2023/01/03 10:24:29;;;;;;;34.83;10.23;;;;;;;;;;4991570;28;20046;-69
2023/01/03 10:26:59;;;;;;;36.33;10.10;;;;;;;;;;4991012;28;20046;-69
2023/01/03 10:29:25;;;;;;;30.17;9.13;;;;;;;;;;4951807;28;20043;-68
2023/01/03 10:32:11;;;;;;;43.40;10.73;;;;;;;;;;4963521;28;20476;-70
2023/01/03 10:34:37;;;;;;;30.90;9.17;;;;;;;;;;4918153;28;20077;-69
2023/01/03 10:37:14;;;;;;;31.00;8.80;;;;;;;;;;4964293;28;20385;-68
2023/01/03 10:39:40;;;;;;;29.67;9.23;;;;;;;;;;4963957;28;20041;-69
2023/01/03 10:42:05;;;;;;;29.37;8.20;;;;;;;;;;4953207;28;20117;-72
2023/01/03 10:44:31;;;;;;;37.73;10.63;;;;;;;;;;4972639;28;20038;-71
2023/01/03 10:46:59;;;;;;;50.73;13.50;;;;;;;;;;4949516;28;20077;-73
2023/01/03 10:49:26;;;;;;;51.30;13.53;;;;;;;;;;4948268;28;20042;-72
2023/01/03 10:52:05;;;;;;;63.53;14.83;;;;;;;;;;4984942;28;20169;-73
2023/01/03 10:54:44;;;;;;;50.07;13.13;;;;;;;;;;4975384;28;20559;-74
2023/01/03 10:57:31;;;;;;;53.60;13.23;;;;;;;;;;4954784;28;20105;-74
2023/01/03 10:59:57;;;;;;;66.87;15.43;;;;;;;;;;4967796;28;20441;-74
2023/01/03 11:02:23;;;;;;;103.77;16.17;;;;;;;;;;4938029;28;20034;-76
2023/01/03 11:05:03;;;;;;;99.33;16.57;;;;;;;;;;4938463;28;20038;-73
2023/01/03 11:07:29;;;;;;;81.68;16.35;;;;;;;;;;4952256;28;20122;-73
2023/01/03 11:09:56;;;;;;;94.17;15.37;;;;;;;;;;4937913;28;20471;-73
2023/01/03 11:12:35;;;;;;;158.20;19.60;;;;;;;;;;4955142;28;20031;-74
2023/01/03 11:15:12;;;;;;;95.23;16.63;;;;;;;;;;4940332;28;20034;-73
2023/01/03 11:17:50;;;;;;;168.70;18.20;;;;;;;;;;4955922;28;20359;-73
2023/01/03 11:20:17;;;;;;;60.70;16.73;;;;;;;;;;4955948;28;20386;-73
2023/01/03 11:22:50;;;;;;;62.90;15.83;;;;;;;;;;4956372;28;20062;-73
2023/01/03 11:25:19;;;;;;;106.83;19.27;;;;;;;;;;4939870;28;20077;-73
2023/01/03 11:27:54;;;;;;;142.30;20.17;;;;;;;;;;4956154;28;20043;-73
2023/01/03 11:30:38;;;;;;;393.27;31.20;;;;;;;;;;4955842;28;20051;-73
2023/01/03 11:33:07;;;;;;;394.57;33.20;;;;;;;;;;4955859;28;20047;-73
2023/01/03 11:35:52;;;;;;;143.67;24.43;;;;;;;;;;4955807;28;20469;-73
2023/01/03 11:38:22;;;;;;;267.43;24.97;;;;;;;;;;4955539;28;20104;-72
2023/01/03 11:40:48;;;;;;;138.65;21.90;;;;;;;;;;4940276;28;20039;-73
2023/01/03 11:43:20;;;;;;;704.03;39.83;;;;;;;;;;4943441;28;20054;-73
2023/01/03 11:46:05;;;;;;;109.33;18.57;;;;;;;;;;4958869;28;20039;-73
2023/01/03 11:48:36;;;;;;;490.73;28.17;;;;;;;;;;4942747;28;20043;-73
2023/01/03 11:51:08;;;;;;;339.17;24.07;;;;;;;;;;4959234;28;20035;-73
2023/01/03 11:53:42;;;;;;;306.33;22.77;;;;;;;;;;4943175;28;20038;-73
2023/01/03 11:56:11;;;;;;;162.07;18.33;;;;;;;;;;4943085;28;20053;-73
2023/01/03 11:58:45;;;;;;;152.87;20.30;;;;;;;;;;4959230;28;20131;-73
2023/01/03 12:01:20;;;;;;;502.40;31.77;;;;;;;;;;4974890;28;20046;-72
2023/01/03 12:03:58;;;;;;;319.53;29.40;;;;;;;;;;4943002;28;20057;-72
2023/01/03 12:06:37;;;;;;;211.50;25.07;;;;;;;;;;4974938;28;20097;-72
2023/01/03 12:09:21;;;;;;;107.67;16.90;;;;;;;;;;4943005;28;20586;-73
2023/01/03 12:11:47;;;;;;;70.80;15.80;;;;;;;;;;4958649;28;20477;-72
2023/01/03 12:14:21;;;;;;;153.53;17.60;;;;;;;;;;4942619;28;20049;-72
2023/01/03 12:17:01;;;;;;;175.73;20.53;;;;;;;;;;4942665;28;20042;-73
2023/01/03 12:19:33;;;;;;;113.13;20.47;;;;;;;;;;4974796;28;20054;-73
2023/01/03 12:22:25;;;;;;;92.23;18.30;;;;;;;;;;4958379;28;20440;-72
2023/01/03 12:24:56;;;;;;;57.67;16.17;;;;;;;;;;4939240;28;20050;-73
2023/01/03 12:27:31;;;;;;;100.70;17.93;;;;;;;;;;4974377;28;20135;-73
2023/01/03 12:30:01;;;;;;;54.60;16.33;;;;;;;;;;4958187;28;20055;-73
2023/01/03 12:33:07;;;;;;;118.37;18.57;;;;;;;;;;4942629;28;20031;-73
2023/01/03 12:35:45;;;;;;;47.70;16.83;;;;;;;;;;4919116;29;20466;-73
2023/01/03 12:38:11;;;;;;;67.23;18.67;;;;;;;;;;4903259;29;20038;-73
2023/01/03 12:40:45;;;;;;;48.23;17.80;;;;;;;;;;4932108;28;20046;-73
2023/01/03 12:43:23;;;;;;;43.90;16.80;;;;;;;;;;4974023;28;20046;-73
2023/01/03 12:45:52;;;;;;;47.97;17.03;;;;;;;;;;4958422;28;20129;-73
2023/01/03 12:48:36;;;;;;;51.20;17.87;;;;;;;;;;4974965;28;20074;-74
2023/01/03 12:51:02;;;;;;;49.53;17.90;;;;;;;;;;4973759;28;20058;-74
2023/01/03 12:53:38;;;;;;;48.30;19.87;;;;;;;;;;4957103;28;20034;-73
2023/01/03 12:56:05;;;;;;;37.03;16.10;;;;;;;;;;4973872;28;20113;-73
2023/01/03 12:58:43;;;;;;;47.97;18.20;;;;;;;;;;4958066;28;20125;-73
2023/01/03 13:01:14;;;;;;;47.90;20.20;;;;;;;;;;4942383;28;20456;-74
2023/01/03 13:03:39;;;;;;;;;;;;;;;;;;4974614;28;20042;-74
2023/01/03 13:06:05;;;;;;;47.23;19.67;;;;;;;;;;4973921;28;19914;-74
2023/01/03 13:08:33;;;;;;;49.27;19.37;;;;;;;;;;4941824;28;20150;-74
2023/01/03 13:11:01;;;;;;;41.27;17.70;;;;;;;;;;4941739;28;20058;-73
2023/01/03 13:13:27;;;;;;;42.13;18.83;;;;;;;;;;4973442;28;20134;-74
2023/01/03 13:15:53;;;;;;;42.17;17.87;;;;;;;;;;4941353;28;20092;-74
2023/01/03 13:18:22;;;;;;;36.73;16.07;;;;;;;;;;4941589;28;20497;-73
2023/01/03 13:20:48;;;;;;;42.43;15.90;;;;;;;;;;4957864;28;20170;-74
2023/01/03 13:23:28;;;;;;;40.07;15.93;;;;;;;;;;4973483;28;20541;-73
2023/01/03 13:26:06;;;;;;;38.80;14.83;;;;;;;;;;4957496;28;20050;-73
2023/01/03 13:28:33;;;;;;;50.00;21.23;;;;;;;;;;4957491;28;20458;-73
2023/01/03 13:31:17;;;;;;;38.80;15.57;;;;;;;;;;4973533;28;20425;-73
2023/01/03 13:33:47;;;;;;;38.30;15.20;;;;;;;;;;4973513;28;20066;-73
2023/01/03 13:36:16;;;;;;;30.20;14.50;;;;;;;;;;4941371;28;20137;-73
2023/01/03 13:38:41;;;;;;;38.37;14.97;;;;;;;;;;4974635;28;20042;-74
2023/01/03 13:41:25;;;;;;;37.10;15.73;;;;;;;;;;4957254;28;20066;-73
2023/01/03 13:43:53;;;;;;;36.80;14.87;;;;;;;;;;4957261;28;20039;-74
2023/01/03 13:46:19;;;;;;;31.33;14.07;;;;;;;;;;4957267;28;20049;-74
2023/01/03 13:48:55;;;;;;;33.13;14.13;;;;;;;;;;4957103;28;20113;-73
2023/01/03 13:51:24;;;;;;;32.60;13.63;;;;;;;;;;4973215;28;20051;-74
2023/01/03 13:53:51;;;;;;;32.65;13.45;;;;;;;;;;4957026;28;20042;-74
2023/01/03 13:56:24;;;;;;;26.08;13.18;;;;;;;;;;4940785;28;20039;-73
2023/01/03 13:58:52;;;;;;;27.35;13.43;;;;;;;;;;4956665;28;20049;-73
2023/01/03 14:01:17;;;;;;;33.47;14.17;;;;;;;;;;4940745;28;20043;-73
2023/01/03 14:03:54;;;;;;;27.73;13.27;;;;;;;;;;4956863;28;20057;-73
2023/01/03 14:06:35;;;;;;;29.80;12.90;;;;;;;;;;4956834;28;20488;-73
2023/01/03 14:09:11;;;;;;;29.17;14.27;;;;;;;;;;4940508;28;20468;-74
2023/01/03 14:11:55;;;;;;;30.63;13.93;;;;;;;;;;4940703;28;20181;-73
2023/01/03 14:14:22;;;;;;;26.00;13.15;;;;;;;;;;4940366;28;20042;-75
2023/01/03 14:16:49;;;;;;;28.17;14.05;;;;;;;;;;4956187;28;20070;-73
2023/01/03 14:19:18;;;;;;;28.35;14.75;;;;;;;;;;4940305;28;20041;-71
2023/01/03 14:21:46;;;;;;;28.10;13.45;;;;;;;;;;4940521;28;20035;-74
2023/01/03 14:24:21;;;;;;;29.08;13.23;;;;;;;;;;4956863;28;20130;-73
2023/01/03 14:26:47;;;;;;;26.95;12.93;;;;;;;;;;4940600;28;20043;-73
2023/01/03 14:29:22;;;;;;;33.55;14.63;;;;;;;;;;4956566;28;20058;-74
2023/01/03 14:31:49;;;;;;;32.22;14.00;;;;;;;;;;4956173;28;20041;-75
2023/01/03 14:34:23;;;;;;;24.75;12.90;;;;;;;;;;4956375;28;20125;-75
2023/01/03 14:36:49;;;;;;;28.90;13.73;;;;;;;;;;4956463;28;20039;-75
2023/01/03 14:39:21;;;;;;;21.70;11.32;;;;;;;;;;4972556;28;20134;-74
2023/01/03 14:41:50;;;;;;;27.33;11.50;;;;;;;;;;4956102;28;20050;-75
2023/01/03 14:44:15;;;;;;;21.98;11.93;;;;;;;;;;4956310;28;20489;-75
2023/01/03 14:46:52;;;;;;;22.95;11.48;;;;;;;;;;4956134;28;20038;-74
2023/01/03 14:49:28;;;;;;;22.30;11.27;;;;;;;;;;4956092;28;20047;-73
2023/01/03 14:52:16;;;;;;;21.90;10.98;;;;;;;;;;4956107;28;20517;-74
2023/01/03 14:54:43;;;;;;;25.67;10.98;;;;;;;;;;4972328;28;20125;-74
2023/01/03 14:57:14;;;;;;;24.20;11.45;;;;;;;;;;4940169;28;20038;-73
2023/01/03 14:59:39;;;;;;;22.17;10.50;;;;;;;;;;4972644;28;20050;-74
2023/01/03 15:02:06;;;;;;;17.13;10.05;;;;;;;;;;4972222;28;20039;-73
2023/01/03 15:04:31;;;;;;;20.48;9.90;;;;;;;;;;4956472;28;20047;-73
2023/01/03 15:06:58;;;;;;;19.40;9.38;;;;;;;;;;4940475;28;20035;-74
2023/01/03 15:09:24;;;;;;;14.82;9.00;;;;;;;;;;4940185;28;20584;-74
2023/01/03 15:11:59;;;;;;;18.60;9.07;;;;;;;;;;4940274;28;20042;-73
2023/01/03 15:14:27;;;;;;;17.27;9.32;;;;;;;;;;4956256;28;20042;-74
2023/01/03 15:17:00;;;;;;;15.27;7.75;;;;;;;;;;4974918;28;20060;-73
2023/01/03 15:19:27;;;;;;;17.63;6.88;;;;;;;;;;4943780;28;20035;-73
2023/01/03 15:22:05;;;;;;;9.40;6.07;;;;;;;;;;4959732;28;20401;-73
2023/01/03 15:24:31;;;;;;;9.35;5.47;;;;;;;;;;4943749;28;20042;-73
2023/01/03 15:26:59;;;;;;;10.48;5.55;;;;;;;;;;4960262;28;20035;-73
2023/01/03 15:29:28;;;;;;;6.90;4.32;;;;;;;;;;4959663;28;20047;-74
2023/01/03 15:31:53;;;;;;;10.23;5.05;;;;;;;;;;4943736;28;20049;-73
2023/01/03 15:34:22;;;;;;;9.55;4.80;;;;;;;;;;4944153;28;20035;-70
2023/01/03 15:36:54;;;;;;;10.45;4.55;;;;;;;;;;4960070;28;20043;-73
2023/01/03 15:39:21;;;;;;;10.98;4.60;;;;;;;;;;4959707;28;20069;-70
2023/01/03 15:44:32;;;;;;;13.85;4.68;;;;;;;;;;4959511;28;20104;-72
2023/01/03 15:47:04;;;;;;;9.07;4.68;;;;;;;;;;4959576;28;20088;-73
2023/01/03 15:49:30;;;;;;;7.65;4.70;;;;;;;;;;4959711;28;20058;-74